sensor_id;sensor_type;location;lat;lon;timestamp;temperature;humidity
35559;DHT22;21661;50.794;-1.066;2023-05-06T00:02:06;13.00;99.90
35559;DHT22;21661;50.794;-1.066;2023-05-06T00:04:32;13.10;99.90
35559;DHT22;21661;50.794;-1.066;2023-05-06T00:06:58;13.10;99.90
35559;DHT22;21661;50.794;-1.066;2023-05-06T00:09:24;13.10;99.90
35559;DHT22;21661;50.794;-1.066;2023-05-06T00:11:49;13.10;99.90
35559;DHT22;21661;50.794;-1.066;2023-05-06T00:14:16;13.10;99.90
35559;DHT22;21661;50.794;-1.066;2023-05-06T00:16:41;13.20;99.90
35559;DHT22;21661;50.794;-1.066;2023-05-06T00:19:07;13.20;99.90
35559;DHT22;21661;50.794;-1.066;2023-05-06T00:21:32;13.20;99.90
35559;DHT22;21661;50.794;-1.066;2023-05-06T00:23:58;13.20;99.90
35559;DHT22;21661;50.794;-1.066;2023-05-06T00:26:24;13.20;99.90
35559;DHT22;21661;50.794;-1.066;2023-05-06T00:28:49;13.20;99.90
35559;DHT22;21661;50.794;-1.066;2023-05-06T00:31:15;13.20;99.90
35559;DHT22;21661;50.794;-1.066;2023-05-06T00:33:40;13.20;99.90
35559;DHT22;21661;50.794;-1.066;2023-05-06T00:36:06;13.10;99.90
35559;DHT22;21661;50.794;-1.066;2023-05-06T00:38:32;13.20;99.90
35559;DHT22;21661;50.794;-1.066;2023-05-06T00:40:57;13.20;99.90
35559;DHT22;21661;50.794;-1.066;2023-05-06T00:43:23;13.20;99.90
35559;DHT22;21661;50.794;-1.066;2023-05-06T00:45:50;13.20;99.90
35559;DHT22;21661;50.794;-1.066;2023-05-06T00:48:16;13.30;99.90
35559;DHT22;21661;50.794;-1.066;2023-05-06T00:50:42;13.30;99.90
35559;DHT22;21661;50.794;-1.066;2023-05-06T00:53:08;13.30;99.90
35559;DHT22;21661;50.794;-1.066;2023-05-06T00:55:35;13.30;99.90
35559;DHT22;21661;50.794;-1.066;2023-05-06T00:58:02;13.30;99.90
35559;DHT22;21661;50.794;-1.066;2023-05-06T01:00:28;13.20;99.90
35559;DHT22;21661;50.794;-1.066;2023-05-06T01:02:54;13.20;99.90
35559;DHT22;21661;50.794;-1.066;2023-05-06T01:05:21;13.10;99.90
35559;DHT22;21661;50.794;-1.066;2023-05-06T01:07:59;13.10;99.90
35559;DHT22;21661;50.794;-1.066;2023-05-06T01:13:12;13.00;99.90
35559;DHT22;21661;50.794;-1.066;2023-05-06T01:15:45;12.90;99.90
35559;DHT22;21661;50.794;-1.066;2023-05-06T01:18:15;12.80;99.90
35559;DHT22;21661;50.794;-1.066;2023-05-06T01:20:43;12.90;99.90
35559;DHT22;21661;50.794;-1.066;2023-05-06T01:23:12;12.90;99.90
35559;DHT22;21661;50.794;-1.066;2023-05-06T01:25:38;12.90;99.90
35559;DHT22;21661;50.794;-1.066;2023-05-06T01:28:04;12.90;99.90
35559;DHT22;21661;50.794;-1.066;2023-05-06T01:30:38;12.90;99.90
35559;DHT22;21661;50.794;-1.066;2023-05-06T01:33:41;12.90;99.90
35559;DHT22;21661;50.794;-1.066;2023-05-06T01:36:14;12.90;99.90
35559;DHT22;21661;50.794;-1.066;2023-05-06T01:39:01;12.80;99.90
35559;DHT22;21661;50.794;-1.066;2023-05-06T01:41:30;12.90;99.90
35559;DHT22;21661;50.794;-1.066;2023-05-06T01:43:57;12.90;99.90
35559;DHT22;21661;50.794;-1.066;2023-05-06T01:46:24;12.90;99.90
35559;DHT22;21661;50.794;-1.066;2023-05-06T01:48:52;12.90;99.90
35559;DHT22;21661;50.794;-1.066;2023-05-06T01:51:20;12.90;99.90
35559;DHT22;21661;50.794;-1.066;2023-05-06T01:53:46;12.90;99.90
35559;DHT22;21661;50.794;-1.066;2023-05-06T01:56:12;13.00;99.90
35559;DHT22;21661;50.794;-1.066;2023-05-06T01:58:37;13.00;99.90
35559;DHT22;21661;50.794;-1.066;2023-05-06T02:01:03;13.00;99.90
35559;DHT22;21661;50.794;-1.066;2023-05-06T02:03:28;13.00;99.90
35559;DHT22;21661;50.794;-1.066;2023-05-06T02:05:54;13.10;99.90
35559;DHT22;21661;50.794;-1.066;2023-05-06T02:08:20;13.10;99.90
35559;DHT22;21661;50.794;-1.066;2023-05-06T02:10:45;13.10;99.90
35559;DHT22;21661;50.794;-1.066;2023-05-06T02:13:11;13.10;99.90
35559;DHT22;21661;50.794;-1.066;2023-05-06T02:15:36;13.20;99.90
35559;DHT22;21661;50.794;-1.066;2023-05-06T02:18:02;13.20;99.90
35559;DHT22;21661;50.794;-1.066;2023-05-06T02:20:28;13.20;99.90
35559;DHT22;21661;50.794;-1.066;2023-05-06T02:22:53;13.30;99.90
35559;DHT22;21661;50.794;-1.066;2023-05-06T02:25:19;13.20;99.90
35559;DHT22;21661;50.794;-1.066;2023-05-06T02:27:45;13.20;99.90
35559;DHT22;21661;50.794;-1.066;2023-05-06T02:30:11;13.30;99.90
35559;DHT22;21661;50.794;-1.066;2023-05-06T02:32:36;13.30;99.90
35559;DHT22;21661;50.794;-1.066;2023-05-06T02:35:02;13.30;99.90
35559;DHT22;21661;50.794;-1.066;2023-05-06T02:37:28;13.30;99.90
35559;DHT22;21661;50.794;-1.066;2023-05-06T02:39:53;13.30;99.90
35559;DHT22;21661;50.794;-1.066;2023-05-06T02:42:19;13.40;99.90
35559;DHT22;21661;50.794;-1.066;2023-05-06T02:44:45;13.40;99.90
35559;DHT22;21661;50.794;-1.066;2023-05-06T02:47:11;13.30;99.90
35559;DHT22;21661;50.794;-1.066;2023-05-06T02:49:37;13.30;99.90
35559;DHT22;21661;50.794;-1.066;2023-05-06T02:52:03;13.30;99.90
35559;DHT22;21661;50.794;-1.066;2023-05-06T02:54:29;13.30;99.90
35559;DHT22;21661;50.794;-1.066;2023-05-06T02:56:54;13.30;99.90
35559;DHT22;21661;50.794;-1.066;2023-05-06T02:59:20;13.30;99.90
35559;DHT22;21661;50.794;-1.066;2023-05-06T03:01:46;13.20;99.90
35559;DHT22;21661;50.794;-1.066;2023-05-06T03:04:12;13.20;99.90
35559;DHT22;21661;50.794;-1.066;2023-05-06T03:06:37;13.20;99.90
35559;DHT22;21661;50.794;-1.066;2023-05-06T03:09:03;13.20;99.90
35559;DHT22;21661;50.794;-1.066;2023-05-06T03:11:29;13.20;99.90
35559;DHT22;21661;50.794;-1.066;2023-05-06T03:13:56;13.30;99.90
35559;DHT22;21661;50.794;-1.066;2023-05-06T03:16:22;13.20;99.90
35559;DHT22;21661;50.794;-1.066;2023-05-06T03:18:48;13.30;99.90
35559;DHT22;21661;50.794;-1.066;2023-05-06T03:21:13;13.30;99.90
35559;DHT22;21661;50.794;-1.066;2023-05-06T03:23:39;13.30;99.90
35559;DHT22;21661;50.794;-1.066;2023-05-06T03:26:05;13.30;99.90
35559;DHT22;21661;50.794;-1.066;2023-05-06T03:28:30;13.30;99.90
35559;DHT22;21661;50.794;-1.066;2023-05-06T03:30:56;13.40;99.90
35559;DHT22;21661;50.794;-1.066;2023-05-06T03:33:21;13.50;99.90
35559;DHT22;21661;50.794;-1.066;2023-05-06T03:35:47;13.50;99.90
35559;DHT22;21661;50.794;-1.066;2023-05-06T03:38:13;13.40;99.90
35559;DHT22;21661;50.794;-1.066;2023-05-06T03:40:38;13.40;99.90
35559;DHT22;21661;50.794;-1.066;2023-05-06T03:43:04;13.40;99.90
35559;DHT22;21661;50.794;-1.066;2023-05-06T03:45:30;13.40;99.90
35559;DHT22;21661;50.794;-1.066;2023-05-06T03:47:55;13.40;99.90
35559;DHT22;21661;50.794;-1.066;2023-05-06T03:50:21;13.40;99.90
35559;DHT22;21661;50.794;-1.066;2023-05-06T03:52:46;13.40;99.90
35559;DHT22;21661;50.794;-1.066;2023-05-06T03:55:12;13.40;99.90
35559;DHT22;21661;50.794;-1.066;2023-05-06T03:57:38;13.40;99.90
35559;DHT22;21661;50.794;-1.066;2023-05-06T04:00:04;13.40;99.90
35559;DHT22;21661;50.794;-1.066;2023-05-06T04:02:33;13.40;99.90
35559;DHT22;21661;50.794;-1.066;2023-05-06T04:04:59;13.40;99.90
35559;DHT22;21661;50.794;-1.066;2023-05-06T04:07:24;13.30;99.90
35559;DHT22;21661;50.794;-1.066;2023-05-06T04:09:50;13.30;99.90
35559;DHT22;21661;50.794;-1.066;2023-05-06T04:12:15;13.30;99.90
35559;DHT22;21661;50.794;-1.066;2023-05-06T04:14:41;13.30;99.90
35559;DHT22;21661;50.794;-1.066;2023-05-06T04:17:07;13.30;99.90
35559;DHT22;21661;50.794;-1.066;2023-05-06T04:19:32;13.40;99.90
35559;DHT22;21661;50.794;-1.066;2023-05-06T04:21:58;13.40;99.90
35559;DHT22;21661;50.794;-1.066;2023-05-06T04:24:23;13.40;99.90
35559;DHT22;21661;50.794;-1.066;2023-05-06T04:26:49;13.40;99.90
35559;DHT22;21661;50.794;-1.066;2023-05-06T04:29:15;13.40;99.90
35559;DHT22;21661;50.794;-1.066;2023-05-06T04:31:41;13.40;99.90
35559;DHT22;21661;50.794;-1.066;2023-05-06T04:34:06;13.40;99.90
35559;DHT22;21661;50.794;-1.066;2023-05-06T04:36:32;13.40;99.90
35559;DHT22;21661;50.794;-1.066;2023-05-06T04:38:58;13.50;99.90
35559;DHT22;21661;50.794;-1.066;2023-05-06T04:41:23;13.40;99.90
35559;DHT22;21661;50.794;-1.066;2023-05-06T04:43:50;13.50;99.90
35559;DHT22;21661;50.794;-1.066;2023-05-06T04:46:15;13.50;99.90
35559;DHT22;21661;50.794;-1.066;2023-05-06T04:48:41;13.50;99.90
35559;DHT22;21661;50.794;-1.066;2023-05-06T04:51:07;13.50;99.90
35559;DHT22;21661;50.794;-1.066;2023-05-06T04:53:33;13.50;99.90
35559;DHT22;21661;50.794;-1.066;2023-05-06T04:55:59;13.50;99.90
35559;DHT22;21661;50.794;-1.066;2023-05-06T04:58:24;13.50;99.90
35559;DHT22;21661;50.794;-1.066;2023-05-06T05:00:50;13.50;99.90
35559;DHT22;21661;50.794;-1.066;2023-05-06T05:03:16;13.50;99.90
35559;DHT22;21661;50.794;-1.066;2023-05-06T05:05:41;13.50;99.90
35559;DHT22;21661;50.794;-1.066;2023-05-06T05:08:08;13.50;99.90
35559;DHT22;21661;50.794;-1.066;2023-05-06T05:10:34;13.50;99.90
35559;DHT22;21661;50.794;-1.066;2023-05-06T05:13:00;13.50;99.90
35559;DHT22;21661;50.794;-1.066;2023-05-06T05:15:25;13.50;99.90
35559;DHT22;21661;50.794;-1.066;2023-05-06T05:17:51;13.40;99.90
35559;DHT22;21661;50.794;-1.066;2023-05-06T05:20:16;13.50;99.90
35559;DHT22;21661;50.794;-1.066;2023-05-06T05:22:42;13.40;99.90
35559;DHT22;21661;50.794;-1.066;2023-05-06T05:25:08;13.50;99.90
35559;DHT22;21661;50.794;-1.066;2023-05-06T05:27:33;13.50;99.90
35559;DHT22;21661;50.794;-1.066;2023-05-06T05:29:59;13.50;99.90
35559;DHT22;21661;50.794;-1.066;2023-05-06T05:32:25;13.50;99.90
35559;DHT22;21661;50.794;-1.066;2023-05-06T05:34:51;13.60;99.90
35559;DHT22;21661;50.794;-1.066;2023-05-06T05:37:17;13.60;99.90
35559;DHT22;21661;50.794;-1.066;2023-05-06T05:39:42;13.70;99.90
35559;DHT22;21661;50.794;-1.066;2023-05-06T05:42:08;13.70;99.90
35559;DHT22;21661;50.794;-1.066;2023-05-06T05:44:33;13.70;99.90
35559;DHT22;21661;50.794;-1.066;2023-05-06T05:47:00;13.70;99.90
35559;DHT22;21661;50.794;-1.066;2023-05-06T05:49:26;13.70;99.90
35559;DHT22;21661;50.794;-1.066;2023-05-06T05:51:52;13.80;99.90
35559;DHT22;21661;50.794;-1.066;2023-05-06T05:54:17;13.80;99.90
35559;DHT22;21661;50.794;-1.066;2023-05-06T05:56:43;13.80;99.90
35559;DHT22;21661;50.794;-1.066;2023-05-06T05:59:08;13.90;99.90
35559;DHT22;21661;50.794;-1.066;2023-05-06T06:01:34;13.90;99.90
35559;DHT22;21661;50.794;-1.066;2023-05-06T06:03:59;13.80;99.90
35559;DHT22;21661;50.794;-1.066;2023-05-06T06:06:25;13.80;99.90
35559;DHT22;21661;50.794;-1.066;2023-05-06T06:08:51;13.80;99.90
35559;DHT22;21661;50.794;-1.066;2023-05-06T06:11:17;13.80;99.90
35559;DHT22;21661;50.794;-1.066;2023-05-06T06:13:42;13.70;99.90
35559;DHT22;21661;50.794;-1.066;2023-05-06T06:16:08;13.80;99.90
35559;DHT22;21661;50.794;-1.066;2023-05-06T06:18:34;13.70;99.90
35559;DHT22;21661;50.794;-1.066;2023-05-06T06:20:59;13.70;99.90
35559;DHT22;21661;50.794;-1.066;2023-05-06T06:23:25;13.70;99.90
35559;DHT22;21661;50.794;-1.066;2023-05-06T06:25:51;13.70;99.90
35559;DHT22;21661;50.794;-1.066;2023-05-06T06:28:17;13.70;99.90
35559;DHT22;21661;50.794;-1.066;2023-05-06T06:30:42;13.70;99.90
35559;DHT22;21661;50.794;-1.066;2023-05-06T06:33:08;13.70;99.90
35559;DHT22;21661;50.794;-1.066;2023-05-06T06:35:33;13.70;99.90
35559;DHT22;21661;50.794;-1.066;2023-05-06T06:37:59;13.70;99.90
35559;DHT22;21661;50.794;-1.066;2023-05-06T06:40:25;13.70;99.90
35559;DHT22;21661;50.794;-1.066;2023-05-06T06:42:51;13.80;99.90
35559;DHT22;21661;50.794;-1.066;2023-05-06T06:45:17;13.80;99.90
35559;DHT22;21661;50.794;-1.066;2023-05-06T06:47:43;13.80;99.90
35559;DHT22;21661;50.794;-1.066;2023-05-06T06:50:09;13.80;99.90
35559;DHT22;21661;50.794;-1.066;2023-05-06T06:52:35;13.70;99.90
35559;DHT22;21661;50.794;-1.066;2023-05-06T06:55:02;13.80;99.90
35559;DHT22;21661;50.794;-1.066;2023-05-06T06:57:27;13.80;99.90
35559;DHT22;21661;50.794;-1.066;2023-05-06T06:59:53;13.80;99.90
35559;DHT22;21661;50.794;-1.066;2023-05-06T07:02:20;13.80;99.90
35559;DHT22;21661;50.794;-1.066;2023-05-06T07:04:46;13.90;99.90
35559;DHT22;21661;50.794;-1.066;2023-05-06T07:07:11;13.90;99.90
35559;DHT22;21661;50.794;-1.066;2023-05-06T07:09:37;13.90;99.90
35559;DHT22;21661;50.794;-1.066;2023-05-06T07:12:05;13.90;99.90
35559;DHT22;21661;50.794;-1.066;2023-05-06T07:14:31;14.00;99.90
35559;DHT22;21661;50.794;-1.066;2023-05-06T07:16:57;14.00;99.90
35559;DHT22;21661;50.794;-1.066;2023-05-06T07:19:23;14.00;99.90
35559;DHT22;21661;50.794;-1.066;2023-05-06T07:21:49;14.00;99.90
35559;DHT22;21661;50.794;-1.066;2023-05-06T07:24:15;14.00;99.90
35559;DHT22;21661;50.794;-1.066;2023-05-06T07:26:40;14.00;99.90
35559;DHT22;21661;50.794;-1.066;2023-05-06T07:29:06;14.00;99.90
35559;DHT22;21661;50.794;-1.066;2023-05-06T07:31:32;14.00;99.90
35559;DHT22;21661;50.794;-1.066;2023-05-06T07:33:58;14.00;99.90
35559;DHT22;21661;50.794;-1.066;2023-05-06T07:36:24;14.00;99.90
35559;DHT22;21661;50.794;-1.066;2023-05-06T07:38:51;13.90;99.90
35559;DHT22;21661;50.794;-1.066;2023-05-06T07:41:17;14.00;99.90
35559;DHT22;21661;50.794;-1.066;2023-05-06T07:43:43;13.90;99.90
35559;DHT22;21661;50.794;-1.066;2023-05-06T07:46:08;13.80;99.90
35559;DHT22;21661;50.794;-1.066;2023-05-06T07:48:34;13.80;99.90
35559;DHT22;21661;50.794;-1.066;2023-05-06T07:51:00;13.70;99.90
35559;DHT22;21661;50.794;-1.066;2023-05-06T07:53:26;13.60;99.90
35559;DHT22;21661;50.794;-1.066;2023-05-06T07:55:52;13.60;99.90
35559;DHT22;21661;50.794;-1.066;2023-05-06T07:58:20;13.60;99.90
35559;DHT22;21661;50.794;-1.066;2023-05-06T08:00:46;13.60;99.90
35559;DHT22;21661;50.794;-1.066;2023-05-06T08:03:11;13.50;99.90
35559;DHT22;21661;50.794;-1.066;2023-05-06T08:05:37;13.50;99.90
35559;DHT22;21661;50.794;-1.066;2023-05-06T08:08:03;13.50;99.90
35559;DHT22;21661;50.794;-1.066;2023-05-06T08:10:28;13.50;99.90
35559;DHT22;21661;50.794;-1.066;2023-05-06T08:12:54;13.50;99.90
35559;DHT22;21661;50.794;-1.066;2023-05-06T08:15:20;13.50;99.90
35559;DHT22;21661;50.794;-1.066;2023-05-06T08:17:45;13.30;99.90
35559;DHT22;21661;50.794;-1.066;2023-05-06T08:20:12;13.40;99.90
35559;DHT22;21661;50.794;-1.066;2023-05-06T08:22:38;13.40;99.90
35559;DHT22;21661;50.794;-1.066;2023-05-06T08:25:04;13.40;99.90
35559;DHT22;21661;50.794;-1.066;2023-05-06T08:27:30;13.40;99.90
35559;DHT22;21661;50.794;-1.066;2023-05-06T08:29:55;13.50;99.90
35559;DHT22;21661;50.794;-1.066;2023-05-06T08:32:21;13.40;99.90
35559;DHT22;21661;50.794;-1.066;2023-05-06T08:34:47;13.50;99.90
35559;DHT22;21661;50.794;-1.066;2023-05-06T08:37:13;13.50;99.90
35559;DHT22;21661;50.794;-1.066;2023-05-06T08:39:38;13.50;99.90
35559;DHT22;21661;50.794;-1.066;2023-05-06T08:42:04;13.50;99.90
35559;DHT22;21661;50.794;-1.066;2023-05-06T08:44:30;13.50;99.90
35559;DHT22;21661;50.794;-1.066;2023-05-06T08:46:57;13.50;99.90
35559;DHT22;21661;50.794;-1.066;2023-05-06T08:49:23;13.60;99.90
35559;DHT22;21661;50.794;-1.066;2023-05-06T08:51:50;13.50;99.90
35559;DHT22;21661;50.794;-1.066;2023-05-06T08:54:19;13.50;99.90
35559;DHT22;21661;50.794;-1.066;2023-05-06T08:56:47;13.50;99.90
35559;DHT22;21661;50.794;-1.066;2023-05-06T08:59:19;13.60;99.90
35559;DHT22;21661;50.794;-1.066;2023-05-06T09:01:47;13.60;99.90
35559;DHT22;21661;50.794;-1.066;2023-05-06T09:04:15;13.60;99.90
35559;DHT22;21661;50.794;-1.066;2023-05-06T09:06:42;13.60;99.90
35559;DHT22;21661;50.794;-1.066;2023-05-06T09:09:08;13.60;99.90
35559;DHT22;21661;50.794;-1.066;2023-05-06T09:11:35;13.70;99.90
35559;DHT22;21661;50.794;-1.066;2023-05-06T09:16:32;13.60;99.90
35559;DHT22;21661;50.794;-1.066;2023-05-06T09:18:58;13.60;99.90
35559;DHT22;21661;50.794;-1.066;2023-05-06T09:21:38;13.70;99.90
35559;DHT22;21661;50.794;-1.066;2023-05-06T09:24:05;13.70;99.90
35559;DHT22;21661;50.794;-1.066;2023-05-06T09:26:32;13.80;99.90
35559;DHT22;21661;50.794;-1.066;2023-05-06T09:28:59;13.70;99.90
35559;DHT22;21661;50.794;-1.066;2023-05-06T09:31:25;13.70;99.90
35559;DHT22;21661;50.794;-1.066;2023-05-06T09:33:53;13.60;99.90
35559;DHT22;21661;50.794;-1.066;2023-05-06T09:36:19;13.50;99.90
35559;DHT22;21661;50.794;-1.066;2023-05-06T09:38:45;13.50;99.90
35559;DHT22;21661;50.794;-1.066;2023-05-06T09:41:12;13.50;99.90
35559;DHT22;21661;50.794;-1.066;2023-05-06T09:43:38;13.40;99.90
35559;DHT22;21661;50.794;-1.066;2023-05-06T09:46:07;13.40;99.90
35559;DHT22;21661;50.794;-1.066;2023-05-06T09:48:34;13.40;99.90
35559;DHT22;21661;50.794;-1.066;2023-05-06T09:51:00;13.30;99.90
35559;DHT22;21661;50.794;-1.066;2023-05-06T09:53:26;13.40;99.90
35559;DHT22;21661;50.794;-1.066;2023-05-06T09:55:53;13.40;99.90
35559;DHT22;21661;50.794;-1.066;2023-05-06T09:58:20;13.40;99.90
35559;DHT22;21661;50.794;-1.066;2023-05-06T10:00:47;13.40;99.90
35559;DHT22;21661;50.794;-1.066;2023-05-06T10:03:14;13.50;99.90
35559;DHT22;21661;50.794;-1.066;2023-05-06T10:05:41;13.50;99.90
35559;DHT22;21661;50.794;-1.066;2023-05-06T10:08:08;13.40;99.90
35559;DHT22;21661;50.794;-1.066;2023-05-06T10:10:36;13.50;99.90
35559;DHT22;21661;50.794;-1.066;2023-05-06T10:13:04;13.60;99.90
35559;DHT22;21661;50.794;-1.066;2023-05-06T10:15:31;13.60;99.90
35559;DHT22;21661;50.794;-1.066;2023-05-06T10:17:58;13.60;99.90
35559;DHT22;21661;50.794;-1.066;2023-05-06T10:20:26;13.50;99.90
35559;DHT22;21661;50.794;-1.066;2023-05-06T10:23:02;13.50;99.90
35559;DHT22;21661;50.794;-1.066;2023-05-06T10:25:36;13.50;99.90
35559;DHT22;21661;50.794;-1.066;2023-05-06T10:28:07;13.50;99.90
35559;DHT22;21661;50.794;-1.066;2023-05-06T10:30:34;13.60;99.90
35559;DHT22;21661;50.794;-1.066;2023-05-06T10:33:04;13.50;99.90
35559;DHT22;21661;50.794;-1.066;2023-05-06T10:38:10;13.50;99.90
35559;DHT22;21661;50.794;-1.066;2023-05-06T10:40:37;13.40;99.90
35559;DHT22;21661;50.794;-1.066;2023-05-06T10:43:22;13.40;99.90
35559;DHT22;21661;50.794;-1.066;2023-05-06T10:48:24;13.30;99.90
35559;DHT22;21661;50.794;-1.066;2023-05-06T10:50:50;13.30;99.90
35559;DHT22;21661;50.794;-1.066;2023-05-06T10:53:16;13.30;99.90
35559;DHT22;21661;50.794;-1.066;2023-05-06T10:55:41;13.40;99.90
35559;DHT22;21661;50.794;-1.066;2023-05-06T11:00:35;13.30;99.90
35559;DHT22;21661;50.794;-1.066;2023-05-06T11:03:06;13.30;99.90
35559;DHT22;21661;50.794;-1.066;2023-05-06T11:05:45;13.30;99.90
35559;DHT22;21661;50.794;-1.066;2023-05-06T11:08:12;13.40;99.90
35559;DHT22;21661;50.794;-1.066;2023-05-06T11:10:37;13.40;99.90
35559;DHT22;21661;50.794;-1.066;2023-05-06T11:13:21;13.30;99.90
35559;DHT22;21661;50.794;-1.066;2023-05-06T11:15:47;13.40;99.90
35559;DHT22;21661;50.794;-1.066;2023-05-06T11:26:11;13.30;99.90
35559;DHT22;21661;50.794;-1.066;2023-05-06T11:28:42;13.30;99.90
35559;DHT22;21661;50.794;-1.066;2023-05-06T11:31:08;13.30;99.90
35559;DHT22;21661;50.794;-1.066;2023-05-06T11:33:35;13.20;99.90
35559;DHT22;21661;50.794;-1.066;2023-05-06T11:36:02;13.20;99.90
35559;DHT22;21661;50.794;-1.066;2023-05-06T11:38:48;13.20;99.90
35559;DHT22;21661;50.794;-1.066;2023-05-06T11:41:17;13.20;99.90
35559;DHT22;21661;50.794;-1.066;2023-05-06T11:43:47;13.20;99.90
35559;DHT22;21661;50.794;-1.066;2023-05-06T11:46:14;13.20;99.90
35559;DHT22;21661;50.794;-1.066;2023-05-06T11:48:41;13.20;99.90
35559;DHT22;21661;50.794;-1.066;2023-05-06T11:51:07;13.20;99.90
35559;DHT22;21661;50.794;-1.066;2023-05-06T11:53:33;13.20;99.90
35559;DHT22;21661;50.794;-1.066;2023-05-06T11:55:58;13.20;99.90
35559;DHT22;21661;50.794;-1.066;2023-05-06T11:58:25;13.20;99.90
35559;DHT22;21661;50.794;-1.066;2023-05-06T12:00:56;13.30;99.90
35559;DHT22;21661;50.794;-1.066;2023-05-06T12:03:23;13.30;99.90
35559;DHT22;21661;50.794;-1.066;2023-05-06T12:05:50;13.30;99.90
35559;DHT22;21661;50.794;-1.066;2023-05-06T12:08:26;13.30;99.90
35559;DHT22;21661;50.794;-1.066;2023-05-06T12:11:02;13.30;99.90
35559;DHT22;21661;50.794;-1.066;2023-05-06T12:13:28;13.20;99.90
35559;DHT22;21661;50.794;-1.066;2023-05-06T12:15:54;13.20;99.90
35559;DHT22;21661;50.794;-1.066;2023-05-06T12:18:23;13.20;99.90
35559;DHT22;21661;50.794;-1.066;2023-05-06T12:20:48;13.20;99.90
35559;DHT22;21661;50.794;-1.066;2023-05-06T12:23:15;13.30;99.90
35559;DHT22;21661;50.794;-1.066;2023-05-06T12:25:41;13.30;99.90
35559;DHT22;21661;50.794;-1.066;2023-05-06T12:28:14;13.30;99.90
35559;DHT22;21661;50.794;-1.066;2023-05-06T12:30:40;13.30;99.90
35559;DHT22;21661;50.794;-1.066;2023-05-06T12:33:07;13.30;99.90
35559;DHT22;21661;50.794;-1.066;2023-05-06T12:35:33;13.40;99.90
35559;DHT22;21661;50.794;-1.066;2023-05-06T12:38:16;13.30;99.90
35559;DHT22;21661;50.794;-1.066;2023-05-06T12:40:44;13.40;99.90
35559;DHT22;21661;50.794;-1.066;2023-05-06T12:43:16;13.50;99.90
35559;DHT22;21661;50.794;-1.066;2023-05-06T12:45:41;13.50;99.90
35559;DHT22;21661;50.794;-1.066;2023-05-06T12:48:14;13.50;99.90
35559;DHT22;21661;50.794;-1.066;2023-05-06T12:50:41;13.50;99.90
35559;DHT22;21661;50.794;-1.066;2023-05-06T12:53:09;13.50;99.90
35559;DHT22;21661;50.794;-1.066;2023-05-06T12:55:36;13.50;99.90
35559;DHT22;21661;50.794;-1.066;2023-05-06T12:58:02;13.60;99.90
35559;DHT22;21661;50.794;-1.066;2023-05-06T13:00:28;13.50;99.90
35559;DHT22;21661;50.794;-1.066;2023-05-06T13:02:54;13.60;99.90
35559;DHT22;21661;50.794;-1.066;2023-05-06T13:05:20;13.60;99.90
35559;DHT22;21661;50.794;-1.066;2023-05-06T13:07:46;13.70;99.90
35559;DHT22;21661;50.794;-1.066;2023-05-06T13:10:11;13.80;99.90
35559;DHT22;21661;50.794;-1.066;2023-05-06T13:12:37;13.80;99.90
35559;DHT22;21661;50.794;-1.066;2023-05-06T13:15:03;13.80;99.90
35559;DHT22;21661;50.794;-1.066;2023-05-06T13:17:29;13.80;99.90
35559;DHT22;21661;50.794;-1.066;2023-05-06T13:19:55;13.80;99.90
35559;DHT22;21661;50.794;-1.066;2023-05-06T13:22:24;13.70;99.90
35559;DHT22;21661;50.794;-1.066;2023-05-06T13:24:50;13.80;99.90
35559;DHT22;21661;50.794;-1.066;2023-05-06T13:27:15;13.80;99.90
35559;DHT22;21661;50.794;-1.066;2023-05-06T13:29:41;13.80;99.90
35559;DHT22;21661;50.794;-1.066;2023-05-06T13:32:07;13.80;99.90
35559;DHT22;21661;50.794;-1.066;2023-05-06T13:34:32;13.80;99.90
35559;DHT22;21661;50.794;-1.066;2023-05-06T13:36:58;13.90;99.90
35559;DHT22;21661;50.794;-1.066;2023-05-06T13:39:27;13.80;99.90
35559;DHT22;21661;50.794;-1.066;2023-05-06T13:41:52;13.80;99.90
35559;DHT22;21661;50.794;-1.066;2023-05-06T13:44:19;13.80;99.90
35559;DHT22;21661;50.794;-1.066;2023-05-06T13:46:45;13.80;99.90
35559;DHT22;21661;50.794;-1.066;2023-05-06T13:49:12;13.80;99.90
35559;DHT22;21661;50.794;-1.066;2023-05-06T13:51:38;13.90;99.90
35559;DHT22;21661;50.794;-1.066;2023-05-06T13:54:04;13.90;99.90
35559;DHT22;21661;50.794;-1.066;2023-05-06T13:56:30;13.90;99.90
35559;DHT22;21661;50.794;-1.066;2023-05-06T13:58:55;13.90;99.90
35559;DHT22;21661;50.794;-1.066;2023-05-06T14:01:22;13.90;99.90
35559;DHT22;21661;50.794;-1.066;2023-05-06T14:03:48;13.90;99.90
35559;DHT22;21661;50.794;-1.066;2023-05-06T14:06:14;14.00;99.90
35559;DHT22;21661;50.794;-1.066;2023-05-06T14:08:40;14.00;99.90
35559;DHT22;21661;50.794;-1.066;2023-05-06T14:11:05;14.00;99.90
35559;DHT22;21661;50.794;-1.066;2023-05-06T14:13:32;14.00;99.90
35559;DHT22;21661;50.794;-1.066;2023-05-06T14:15:58;13.90;99.90
35559;DHT22;21661;50.794;-1.066;2023-05-06T14:18:25;13.90;99.90
35559;DHT22;21661;50.794;-1.066;2023-05-06T14:20:50;13.90;99.90
35559;DHT22;21661;50.794;-1.066;2023-05-06T14:23:16;13.90;99.90
35559;DHT22;21661;50.794;-1.066;2023-05-06T14:25:41;13.90;99.90
35559;DHT22;21661;50.794;-1.066;2023-05-06T14:28:07;13.80;99.90
35559;DHT22;21661;50.794;-1.066;2023-05-06T14:30:35;13.80;99.90
35559;DHT22;21661;50.794;-1.066;2023-05-06T14:33:01;13.80;99.90
35559;DHT22;21661;50.794;-1.066;2023-05-06T14:35:27;13.90;99.90
35559;DHT22;21661;50.794;-1.066;2023-05-06T14:37:53;13.90;99.90
35559;DHT22;21661;50.794;-1.066;2023-05-06T14:40:18;13.80;99.90
35559;DHT22;21661;50.794;-1.066;2023-05-06T14:42:44;13.90;99.90
35559;DHT22;21661;50.794;-1.066;2023-05-06T14:45:10;13.90;99.90
35559;DHT22;21661;50.794;-1.066;2023-05-06T14:47:38;13.90;99.90
35559;DHT22;21661;50.794;-1.066;2023-05-06T14:50:05;13.90;99.90
35559;DHT22;21661;50.794;-1.066;2023-05-06T14:52:31;13.90;99.90
35559;DHT22;21661;50.794;-1.066;2023-05-06T14:54:57;14.00;99.90
35559;DHT22;21661;50.794;-1.066;2023-05-06T14:57:22;13.90;99.90
35559;DHT22;21661;50.794;-1.066;2023-05-06T14:59:49;13.90;99.90
35559;DHT22;21661;50.794;-1.066;2023-05-06T15:02:15;13.90;99.90
35559;DHT22;21661;50.794;-1.066;2023-05-06T15:04:40;13.90;99.90
35559;DHT22;21661;50.794;-1.066;2023-05-06T15:07:06;13.90;99.90
35559;DHT22;21661;50.794;-1.066;2023-05-06T15:09:32;13.90;99.90
35559;DHT22;21661;50.794;-1.066;2023-05-06T15:11:58;13.90;99.90
35559;DHT22;21661;50.794;-1.066;2023-05-06T15:14:24;13.80;99.90
35559;DHT22;21661;50.794;-1.066;2023-05-06T15:16:54;13.90;99.90
35559;DHT22;21661;50.794;-1.066;2023-05-06T15:19:20;13.80;99.90
35559;DHT22;21661;50.794;-1.066;2023-05-06T15:21:45;13.80;99.90
35559;DHT22;21661;50.794;-1.066;2023-05-06T15:24:11;13.80;99.90
35559;DHT22;21661;50.794;-1.066;2023-05-06T15:26:37;13.90;99.90
35559;DHT22;21661;50.794;-1.066;2023-05-06T15:29:02;13.90;99.90
35559;DHT22;21661;50.794;-1.066;2023-05-06T15:31:30;13.90;99.90
35559;DHT22;21661;50.794;-1.066;2023-05-06T15:33:56;13.90;99.90